Time;durP1;ratioP1;P1;durP2;ratioP2;P2;SDS_P1;SDS_P2;PMS_P1;PMS_P2;Temp;Humidity;BMP_temperature;BMP_pressure;BME280_temperature;BME280_humidity;BME280_pressure;Samples;Min_cycle;Max_cycle;Signal;HPM_P1;HPM_P2
2023/09/23 05:47:58;;;;;;;2.70;1.40;;;;;;;;;;10504970;28;20484;-83
2023/09/23 05:53:00;;;;;;;3.72;1.48;;;;;;;;;;10502679;28;20037;-83
2023/09/23 05:58:21;;;;;;;2.58;1.63;;;;;;;;;;10520657;22;20135;-88
2023/09/23 06:03:48;;;;;;;2.08;1.20;;;;;;;;;;10411675;28;20173;-85
2023/09/23 06:08:50;;;;;;;2.00;1.10;;;;;;;;;;10414827;28;20156;-84
2023/09/23 06:13:52;;;;;;;2.40;1.52;;;;;;;;;;10506182;28;20439;-84
2023/09/23 06:18:53;;;;;;;3.75;1.77;;;;;;;;;;10500927;28;20020;-86
2023/09/23 06:23:54;;;;;;;3.45;2.15;;;;;;;;;;10484547;28;20033;-86
2023/09/23 06:28:56;;;;;;;3.72;2.35;;;;;;;;;;10493000;28;20369;-86
2023/09/23 06:33:57;;;;;;;8.35;3.38;;;;;;;;;;10486898;28;20020;-86
2023/09/23 06:39:00;;;;;;;4.75;2.42;;;;;;;;;;10477732;28;20087;-85
2023/09/23 06:44:36;;;;;;;4.03;2.55;;;;;;;;;;10485749;28;20025;-86
2023/09/23 07:01:02;;;;;;;6.45;2.85;;;;;;;;;;10469266;28;20041;-85
2023/09/23 07:12:02;;;;;;;3.58;1.75;;;;;;;;;;10460764;28;20496;-86
2023/09/23 07:17:04;;;;;;;5.40;3.10;;;;;;;;;;10456869;28;20056;-83
2023/09/23 07:22:05;;;;;;;5.43;2.63;;;;;;;;;;10493074;28;20076;-83
2023/09/23 07:27:06;;;;;;;6.85;2.50;;;;;;;;;;10467515;28;20089;-85
2023/09/23 07:32:07;;;;;;;6.00;2.85;;;;;;;;;;10463879;28;20033;-84
2023/09/23 07:37:10;;;;;;;6.05;2.88;;;;;;;;;;10464653;28;20464;-86
2023/09/23 07:42:12;;;;;;;3.72;2.53;;;;;;;;;;10468771;28;20045;-85
2023/09/23 07:47:13;;;;;;;5.78;2.92;;;;;;;;;;10468465;28;20051;-85
2023/09/23 07:52:14;;;;;;;4.00;2.67;;;;;;;;;;10474961;28;20048;-84
2023/09/23 07:57:15;;;;;;;4.53;2.42;;;;;;;;;;10463494;28;20021;-84
2023/09/23 08:02:17;;;;;;;4.53;2.55;;;;;;;;;;10459527;28;20032;-83
2023/09/23 08:07:18;;;;;;;5.05;2.60;;;;;;;;;;10442000;28;20032;-84
2023/09/23 08:12:19;;;;;;;5.45;2.70;;;;;;;;;;10457623;28;20025;-84
2023/09/23 08:17:21;;;;;;;5.45;3.00;;;;;;;;;;10457762;28;20040;-84
2023/09/23 08:22:22;;;;;;;6.30;2.58;;;;;;;;;;10460149;28;20033;-85
2023/09/23 08:27:27;;;;;;;5.68;2.80;;;;;;;;;;10465536;28;20202;-85
2023/09/23 08:32:44;;;;;;;3.30;3.00;;;;;;;;;;10478686;28;20439;-85
2023/09/23 08:43:26;;;;;;;4.07;2.88;;;;;;;;;;10474204;28;20032;-85
2023/09/23 08:48:27;;;;;;;4.93;2.88;;;;;;;;;;10461085;28;20104;-86
2023/09/23 08:53:31;;;;;;;6.85;3.10;;;;;;;;;;10484298;28;20056;-85
2023/09/23 08:58:57;;;;;;;5.22;3.03;;;;;;;;;;10474188;28;20033;-85
2023/09/23 09:03:59;;;;;;;3.70;2.60;;;;;;;;;;10479550;28;20366;-85
2023/09/23 09:09:27;;;;;;;5.93;3.15;;;;;;;;;;10463257;28;20025;-85
2023/09/23 11:54:33;;;;;;;3.85;2.05;;;;;;;;;;10499803;28;20033;-86
2023/09/23 11:59:35;;;;;;;4.32;2.00;;;;;;;;;;10489774;28;20072;-86
2023/09/23 12:05:06;;;;;;;2.42;1.58;;;;;;;;;;10473646;28;20032;-89
2023/09/23 12:10:30;;;;;;;5.18;2.22;;;;;;;;;;10452508;28;20037;-87
2023/09/23 12:15:42;;;;;;;3.08;1.73;;;;;;;;;;10439212;28;20037;-87
2023/09/23 12:21:03;;;;;;;4.32;1.80;;;;;;;;;;10452286;28;20059;-86
2023/09/23 12:26:15;;;;;;;4.28;1.90;;;;;;;;;;10437908;28;20033;-87
2023/09/23 12:31:50;;;;;;;2.45;1.40;;;;;;;;;;10484101;28;20021;-88
2023/09/23 12:37:27;;;;;;;2.95;1.33;;;;;;;;;;10469702;28;20051;-87
2023/09/23 12:54:01;;;;;;;4.38;1.73;;;;;;;;;;10468004;28;20033;-86
2023/09/23 12:59:25;;;;;;;4.75;1.50;;;;;;;;;;10499161;28;20033;-87
2023/09/23 13:05:04;;;;;;;2.15;1.15;;;;;;;;;;10369629;28;20098;-87
2023/09/23 13:10:10;;;;;;;2.35;1.15;;;;;;;;;;10356330;28;20057;-87
2023/09/23 13:26:42;;;;;;;4.47;1.80;;;;;;;;;;10473800;28;20020;-86
2023/09/23 13:31:44;;;;;;;3.20;1.67;;;;;;;;;;10470034;28;20119;-88
2023/09/23 13:36:45;;;;;;;4.55;1.60;;;;;;;;;;10470032;28;20029;-87
2023/09/23 13:41:46;;;;;;;4.70;1.73;;;;;;;;;;10467986;28;20028;-87
2023/09/23 13:46:47;;;;;;;3.33;1.20;;;;;;;;;;10476417;28;20064;-87
2023/09/23 13:51:48;;;;;;;3.88;1.75;;;;;;;;;;10476983;28;20108;-88
2023/09/23 13:56:49;;;;;;;4.28;1.60;;;;;;;;;;10476781;28;20051;-85
2023/09/23 14:01:50;;;;;;;2.05;1.30;;;;;;;;;;10470219;28;20108;-86
2023/09/23 14:06:51;;;;;;;3.75;1.70;;;;;;;;;;10471881;28;20021;-87
2023/09/23 14:11:52;;;;;;;1.80;1.05;;;;;;;;;;10475855;28;20472;-87
2023/09/23 14:16:53;;;;;;;3.00;1.60;;;;;;;;;;10480939;28;20056;-86
2023/09/23 14:21:55;;;;;;;2.90;1.60;;;;;;;;;;10477867;28;20028;-87
2023/09/23 14:26:56;;;;;;;2.67;1.25;;;;;;;;;;10475111;28;20441;-89
2023/09/23 14:31:57;;;;;;;3.92;1.30;;;;;;;;;;10489705;28;20036;-87
2023/09/23 14:36:58;;;;;;;4.32;1.50;;;;;;;;;;10480230;28;20105;-87
2023/09/23 14:41:59;;;;;;;4.60;1.70;;;;;;;;;;10475445;28;20040;-87
2023/09/23 14:47:00;;;;;;;4.65;1.80;;;;;;;;;;10475320;28;20450;-86
2023/09/23 14:52:01;;;;;;;3.78;1.73;;;;;;;;;;10478845;28;20033;-86
2023/09/23 14:57:02;;;;;;;3.53;2.13;;;;;;;;;;10471393;28;20032;-87
2023/09/23 15:02:03;;;;;;;4.07;2.20;;;;;;;;;;10472230;28;20109;-87
2023/09/23 15:07:05;;;;;;;3.53;1.70;;;;;;;;;;10473282;28;20485;-87
2023/09/23 15:12:06;;;;;;;4.03;2.08;;;;;;;;;;10470924;28;20025;-87
2023/09/23 15:17:07;;;;;;;4.97;2.30;;;;;;;;;;10466191;28;20086;-87
2023/09/23 15:22:08;;;;;;;4.82;1.90;;;;;;;;;;10468799;28;20511;-87
2023/09/23 15:27:14;;;;;;;4.07;1.50;;;;;;;;;;10470818;28;20025;-87
2023/09/23 15:32:15;;;;;;;2.45;1.38;;;;;;;;;;10480114;28;20032;-87
2023/09/23 15:37:16;;;;;;;2.70;1.50;;;;;;;;;;10474491;28;20106;-87
2023/09/23 15:42:17;;;;;;;2.88;1.48;;;;;;;;;;10464216;28;20465;-88
2023/09/23 15:47:19;;;;;;;4.63;1.52;;;;;;;;;;10468604;28;20025;-87
2023/09/23 15:52:21;;;;;;;4.20;1.73;;;;;;;;;;10476049;28;20021;-87
2023/09/23 15:57:22;;;;;;;2.72;1.50;;;;;;;;;;10469610;28;20119;-87
2023/09/23 16:02:23;;;;;;;2.90;1.40;;;;;;;;;;10473025;28;20025;-86
2023/09/23 16:07:24;;;;;;;2.53;1.45;;;;;;;;;;10472409;28;20032;-88
2023/09/23 16:12:25;;;;;;;2.65;1.40;;;;;;;;;;10472092;28;20541;-88
2023/09/23 16:17:26;;;;;;;3.13;1.23;;;;;;;;;;10470630;28;20115;-87
2023/09/23 16:22:27;;;;;;;4.55;1.48;;;;;;;;;;10476351;28;20017;-87
2023/09/23 16:27:28;;;;;;;2.40;1.10;;;;;;;;;;10484724;28;20025;-87
2023/09/23 16:32:30;;;;;;;1.88;1.05;;;;;;;;;;10471830;28;20080;-86
2023/09/23 16:37:34;;;;;;;3.72;1.08;;;;;;;;;;10471340;28;20096;-88
2023/09/23 16:42:35;;;;;;;4.55;1.55;;;;;;;;;;10471525;28;20037;-89
2023/09/23 16:47:36;;;;;;;4.35;1.80;;;;;;;;;;10467725;28;20036;-87
2023/09/23 16:52:37;;;;;;;5.40;1.77;;;;;;;;;;10460736;28;20069;-86
2023/09/23 16:57:38;;;;;;;3.60;1.67;;;;;;;;;;10467495;28;20044;-87
2023/09/23 17:02:39;;;;;;;2.78;1.40;;;;;;;;;;10473791;28;20025;-85
2023/09/23 17:07:40;;;;;;;2.85;1.45;;;;;;;;;;10478218;28;20174;-87
2023/09/23 17:12:42;;;;;;;2.38;1.40;;;;;;;;;;10469615;28;20021;-87
2023/09/23 17:17:43;;;;;;;2.63;1.30;;;;;;;;;;10472243;28;20025;-89
2023/09/23 17:22:44;;;;;;;3.65;1.40;;;;;;;;;;10471675;28;20167;-87
2023/09/23 17:27:45;;;;;;;4.43;1.40;;;;;;;;;;10474810;28;20056;-87
2023/09/23 17:32:46;;;;;;;2.13;1.30;;;;;;;;;;10472716;28;20059;-86
2023/09/23 17:37:47;;;;;;;3.67;1.92;;;;;;;;;;10475909;28;20029;-86
2023/09/23 17:42:48;;;;;;;2.47;1.55;;;;;;;;;;10472188;28;20021;-87
2023/09/23 17:47:50;;;;;;;4.22;2.03;;;;;;;;;;10468290;28;20056;-86
2023/09/23 17:52:51;;;;;;;3.28;1.60;;;;;;;;;;10465787;28;20051;-86
